sensor_id;sensor_type;location;lat;lon;timestamp;temperature;humidity
17599;DHT22;8918;52.092;5.232;2024-02-14T00:01:52;8.20;99.90
17599;DHT22;8918;52.092;5.232;2024-02-14T00:04:18;8.20;99.90
17599;DHT22;8918;52.092;5.232;2024-02-14T00:06:44;8.20;99.90
17599;DHT22;8918;52.092;5.232;2024-02-14T00:09:10;8.20;99.90
17599;DHT22;8918;52.092;5.232;2024-02-14T00:11:37;8.30;99.90
17599;DHT22;8918;52.092;5.232;2024-02-14T00:14:03;8.30;99.90
17599;DHT22;8918;52.092;5.232;2024-02-14T00:16:29;8.30;99.90
17599;DHT22;8918;52.092;5.232;2024-02-14T00:18:57;8.30;99.90
17599;DHT22;8918;52.092;5.232;2024-02-14T00:21:23;8.30;99.90
17599;DHT22;8918;52.092;5.232;2024-02-14T00:23:50;8.30;99.90
17599;DHT22;8918;52.092;5.232;2024-02-14T00:26:16;8.30;99.90
17599;DHT22;8918;52.092;5.232;2024-02-14T00:28:42;8.40;99.90
17599;DHT22;8918;52.092;5.232;2024-02-14T00:31:07;8.40;99.90
17599;DHT22;8918;52.092;5.232;2024-02-14T00:33:33;8.40;99.90
17599;DHT22;8918;52.092;5.232;2024-02-14T00:35:58;8.40;99.90
17599;DHT22;8918;52.092;5.232;2024-02-14T00:38:24;8.40;99.90
17599;DHT22;8918;52.092;5.232;2024-02-14T00:40:50;8.50;99.90
17599;DHT22;8918;52.092;5.232;2024-02-14T00:43:15;8.50;99.90
17599;DHT22;8918;52.092;5.232;2024-02-14T00:45:41;8.50;99.90
17599;DHT22;8918;52.092;5.232;2024-02-14T00:48:07;8.50;99.90
17599;DHT22;8918;52.092;5.232;2024-02-14T00:50:32;8.50;99.90
17599;DHT22;8918;52.092;5.232;2024-02-14T00:52:59;8.60;99.90
17599;DHT22;8918;52.092;5.232;2024-02-14T00:55:25;8.60;99.90
17599;DHT22;8918;52.092;5.232;2024-02-14T00:57:50;8.60;99.90
17599;DHT22;8918;52.092;5.232;2024-02-14T01:00:16;8.60;99.90
17599;DHT22;8918;52.092;5.232;2024-02-14T01:02:43;8.70;99.90
17599;DHT22;8918;52.092;5.232;2024-02-14T01:05:08;8.70;99.90
17599;DHT22;8918;52.092;5.232;2024-02-14T01:07:35;8.70;99.90
17599;DHT22;8918;52.092;5.232;2024-02-14T01:10:00;8.80;99.90
17599;DHT22;8918;52.092;5.232;2024-02-14T01:12:26;8.80;99.90
17599;DHT22;8918;52.092;5.232;2024-02-14T01:14:51;8.80;99.90
17599;DHT22;8918;52.092;5.232;2024-02-14T01:17:17;8.90;99.90
17599;DHT22;8918;52.092;5.232;2024-02-14T01:19:43;8.90;99.90
17599;DHT22;8918;52.092;5.232;2024-02-14T01:22:09;8.90;99.90
17599;DHT22;8918;52.092;5.232;2024-02-14T01:24:34;8.90;99.90
17599;DHT22;8918;52.092;5.232;2024-02-14T01:27:00;9.00;99.90
17599;DHT22;8918;52.092;5.232;2024-02-14T01:29:27;8.90;99.90
17599;DHT22;8918;52.092;5.232;2024-02-14T01:31:53;9.00;99.90
17599;DHT22;8918;52.092;5.232;2024-02-14T01:34:18;9.00;99.90
17599;DHT22;8918;52.092;5.232;2024-02-14T01:36:44;9.00;99.90
17599;DHT22;8918;52.092;5.232;2024-02-14T01:39:09;9.00;99.90
17599;DHT22;8918;52.092;5.232;2024-02-14T01:41:44;9.00;99.90
17599;DHT22;8918;52.092;5.232;2024-02-14T01:44:11;9.00;99.90
17599;DHT22;8918;52.092;5.232;2024-02-14T01:46:37;9.00;99.90
17599;DHT22;8918;52.092;5.232;2024-02-14T01:49:04;9.10;99.90
17599;DHT22;8918;52.092;5.232;2024-02-14T01:51:30;9.10;99.90
17599;DHT22;8918;52.092;5.232;2024-02-14T01:53:57;9.10;99.90
17599;DHT22;8918;52.092;5.232;2024-02-14T01:56:25;9.10;99.90
17599;DHT22;8918;52.092;5.232;2024-02-14T01:58:52;9.20;99.90
17599;DHT22;8918;52.092;5.232;2024-02-14T02:01:18;9.20;99.90
17599;DHT22;8918;52.092;5.232;2024-02-14T02:03:44;9.20;99.90
17599;DHT22;8918;52.092;5.232;2024-02-14T02:06:10;9.20;99.90
17599;DHT22;8918;52.092;5.232;2024-02-14T02:08:35;9.20;99.90
17599;DHT22;8918;52.092;5.232;2024-02-14T02:11:02;9.20;99.90
17599;DHT22;8918;52.092;5.232;2024-02-14T02:13:28;9.20;99.90
17599;DHT22;8918;52.092;5.232;2024-02-14T02:15:54;9.20;99.90
17599;DHT22;8918;52.092;5.232;2024-02-14T02:18:19;9.20;99.90
17599;DHT22;8918;52.092;5.232;2024-02-14T02:20:45;9.30;99.90
17599;DHT22;8918;52.092;5.232;2024-02-14T02:23:11;9.30;99.90
17599;DHT22;8918;52.092;5.232;2024-02-14T02:25:43;9.20;99.90
17599;DHT22;8918;52.092;5.232;2024-02-14T02:28:09;9.30;99.90
17599;DHT22;8918;52.092;5.232;2024-02-14T02:30:37;9.30;99.90
17599;DHT22;8918;52.092;5.232;2024-02-14T02:33:04;9.30;99.90
17599;DHT22;8918;52.092;5.232;2024-02-14T02:35:30;9.30;99.90
17599;DHT22;8918;52.092;5.232;2024-02-14T02:37:56;9.30;99.90
17599;DHT22;8918;52.092;5.232;2024-02-14T02:40:22;9.30;99.90
17599;DHT22;8918;52.092;5.232;2024-02-14T02:42:48;9.30;99.90
17599;DHT22;8918;52.092;5.232;2024-02-14T02:45:16;9.30;99.90
17599;DHT22;8918;52.092;5.232;2024-02-14T02:47:41;9.30;99.90
17599;DHT22;8918;52.092;5.232;2024-02-14T02:50:07;9.30;99.90
17599;DHT22;8918;52.092;5.232;2024-02-14T02:52:34;9.40;99.90
17599;DHT22;8918;52.092;5.232;2024-02-14T02:54:59;9.30;99.90
17599;DHT22;8918;52.092;5.232;2024-02-14T02:57:26;9.40;99.90
17599;DHT22;8918;52.092;5.232;2024-02-14T02:59:52;9.40;99.90
17599;DHT22;8918;52.092;5.232;2024-02-14T03:02:19;9.40;99.90
17599;DHT22;8918;52.092;5.232;2024-02-14T03:04:46;9.40;99.90
17599;DHT22;8918;52.092;5.232;2024-02-14T03:07:12;9.40;99.90
17599;DHT22;8918;52.092;5.232;2024-02-14T03:09:38;9.40;99.90
17599;DHT22;8918;52.092;5.232;2024-02-14T03:12:03;9.40;99.90
17599;DHT22;8918;52.092;5.232;2024-02-14T03:14:32;9.40;99.90
17599;DHT22;8918;52.092;5.232;2024-02-14T03:17:07;9.50;99.90
17599;DHT22;8918;52.092;5.232;2024-02-14T03:19:35;9.50;99.90
17599;DHT22;8918;52.092;5.232;2024-02-14T03:22:04;9.50;99.90
17599;DHT22;8918;52.092;5.232;2024-02-14T03:24:31;9.50;99.90
17599;DHT22;8918;52.092;5.232;2024-02-14T03:26:56;9.50;99.90
17599;DHT22;8918;52.092;5.232;2024-02-14T03:29:22;9.60;99.90
17599;DHT22;8918;52.092;5.232;2024-02-14T03:31:48;9.60;99.90
17599;DHT22;8918;52.092;5.232;2024-02-14T03:34:14;9.60;99.90
17599;DHT22;8918;52.092;5.232;2024-02-14T03:36:40;9.60;99.90
17599;DHT22;8918;52.092;5.232;2024-02-14T03:39:06;9.70;99.90
17599;DHT22;8918;52.092;5.232;2024-02-14T03:41:32;9.70;99.90
17599;DHT22;8918;52.092;5.232;2024-02-14T03:43:57;9.70;99.90
17599;DHT22;8918;52.092;5.232;2024-02-14T03:46:28;9.70;99.90
17599;DHT22;8918;52.092;5.232;2024-02-14T03:48:54;9.80;99.90
17599;DHT22;8918;52.092;5.232;2024-02-14T03:51:22;9.70;99.90
17599;DHT22;8918;52.092;5.232;2024-02-14T03:53:48;9.80;99.90
17599;DHT22;8918;52.092;5.232;2024-02-14T03:56:13;9.80;99.90
17599;DHT22;8918;52.092;5.232;2024-02-14T03:58:39;9.80;99.90
17599;DHT22;8918;52.092;5.232;2024-02-14T04:01:05;9.80;99.90
17599;DHT22;8918;52.092;5.232;2024-02-14T04:03:31;9.90;99.90
17599;DHT22;8918;52.092;5.232;2024-02-14T04:05:56;9.80;99.90
17599;DHT22;8918;52.092;5.232;2024-02-14T04:08:22;9.80;99.90
17599;DHT22;8918;52.092;5.232;2024-02-14T04:10:48;9.80;99.90
17599;DHT22;8918;52.092;5.232;2024-02-14T04:13:19;9.90;99.90
17599;DHT22;8918;52.092;5.232;2024-02-14T04:15:45;9.90;99.90
17599;DHT22;8918;52.092;5.232;2024-02-14T04:18:12;9.90;99.90
17599;DHT22;8918;52.092;5.232;2024-02-14T04:20:37;9.90;99.90
17599;DHT22;8918;52.092;5.232;2024-02-14T04:23:03;9.80;99.90
17599;DHT22;8918;52.092;5.232;2024-02-14T04:25:32;9.90;99.90
17599;DHT22;8918;52.092;5.232;2024-02-14T04:27:57;9.90;99.90
17599;DHT22;8918;52.092;5.232;2024-02-14T04:30:24;9.90;99.90
17599;DHT22;8918;52.092;5.232;2024-02-14T04:32:50;10.00;99.90
17599;DHT22;8918;52.092;5.232;2024-02-14T04:35:17;10.00;99.90
17599;DHT22;8918;52.092;5.232;2024-02-14T04:37:43;10.00;99.90
17599;DHT22;8918;52.092;5.232;2024-02-14T04:40:12;9.90;99.90
17599;DHT22;8918;52.092;5.232;2024-02-14T04:42:37;10.00;99.90
17599;DHT22;8918;52.092;5.232;2024-02-14T04:45:04;10.00;99.90
17599;DHT22;8918;52.092;5.232;2024-02-14T04:47:29;10.00;99.90
17599;DHT22;8918;52.092;5.232;2024-02-14T04:49:55;10.00;99.90
17599;DHT22;8918;52.092;5.232;2024-02-14T04:52:20;10.00;99.90
17599;DHT22;8918;52.092;5.232;2024-02-14T04:54:46;10.10;99.90
17599;DHT22;8918;52.092;5.232;2024-02-14T04:57:12;10.10;99.90
17599;DHT22;8918;52.092;5.232;2024-02-14T04:59:38;10.10;99.90
17599;DHT22;8918;52.092;5.232;2024-02-14T05:02:03;10.10;99.90
17599;DHT22;8918;52.092;5.232;2024-02-14T05:04:29;10.10;99.90
17599;DHT22;8918;52.092;5.232;2024-02-14T05:06:55;10.10;99.90
17599;DHT22;8918;52.092;5.232;2024-02-14T05:09:20;10.10;99.90
17599;DHT22;8918;52.092;5.232;2024-02-14T05:11:46;10.10;99.90
17599;DHT22;8918;52.092;5.232;2024-02-14T05:14:11;10.10;99.90
17599;DHT22;8918;52.092;5.232;2024-02-14T05:16:37;10.20;99.90
17599;DHT22;8918;52.092;5.232;2024-02-14T05:19:03;10.10;99.90
17599;DHT22;8918;52.092;5.232;2024-02-14T05:21:28;10.10;99.90
17599;DHT22;8918;52.092;5.232;2024-02-14T05:23:54;10.10;99.90
17599;DHT22;8918;52.092;5.232;2024-02-14T05:26:19;10.20;99.90
17599;DHT22;8918;52.092;5.232;2024-02-14T05:28:45;10.20;99.90
17599;DHT22;8918;52.092;5.232;2024-02-14T05:31:11;10.20;99.90
17599;DHT22;8918;52.092;5.232;2024-02-14T05:33:37;10.20;99.90
17599;DHT22;8918;52.092;5.232;2024-02-14T05:36:03;10.20;99.90
17599;DHT22;8918;52.092;5.232;2024-02-14T05:38:28;10.20;99.90
17599;DHT22;8918;52.092;5.232;2024-02-14T05:40:55;10.20;99.90
17599;DHT22;8918;52.092;5.232;2024-02-14T05:43:22;10.20;99.90
17599;DHT22;8918;52.092;5.232;2024-02-14T05:45:47;10.20;99.90
17599;DHT22;8918;52.092;5.232;2024-02-14T05:48:13;10.20;99.90
17599;DHT22;8918;52.092;5.232;2024-02-14T05:50:39;10.10;99.90
17599;DHT22;8918;52.092;5.232;2024-02-14T05:53:05;10.10;99.90
17599;DHT22;8918;52.092;5.232;2024-02-14T05:55:31;10.20;99.90
17599;DHT22;8918;52.092;5.232;2024-02-14T05:57:57;10.20;99.90
17599;DHT22;8918;52.092;5.232;2024-02-14T06:00:24;10.20;99.90
17599;DHT22;8918;52.092;5.232;2024-02-14T06:02:50;10.20;99.90
17599;DHT22;8918;52.092;5.232;2024-02-14T06:05:16;10.20;99.90
17599;DHT22;8918;52.092;5.232;2024-02-14T06:07:42;10.20;99.90
17599;DHT22;8918;52.092;5.232;2024-02-14T06:10:10;10.20;99.90
17599;DHT22;8918;52.092;5.232;2024-02-14T06:12:36;10.20;99.90
17599;DHT22;8918;52.092;5.232;2024-02-14T06:15:02;10.20;99.90
17599;DHT22;8918;52.092;5.232;2024-02-14T06:17:27;10.20;99.90
17599;DHT22;8918;52.092;5.232;2024-02-14T06:19:53;10.20;99.90
17599;DHT22;8918;52.092;5.232;2024-02-14T06:22:19;10.20;99.90
17599;DHT22;8918;52.092;5.232;2024-02-14T06:24:45;10.20;99.90
17599;DHT22;8918;52.092;5.232;2024-02-14T06:27:14;10.20;99.90
17599;DHT22;8918;52.092;5.232;2024-02-14T06:29:45;10.20;99.90
17599;DHT22;8918;52.092;5.232;2024-02-14T06:32:13;10.20;99.90
17599;DHT22;8918;52.092;5.232;2024-02-14T06:34:39;10.20;99.90
17599;DHT22;8918;52.092;5.232;2024-02-14T06:37:05;10.20;99.90
17599;DHT22;8918;52.092;5.232;2024-02-14T06:39:30;10.20;99.90
17599;DHT22;8918;52.092;5.232;2024-02-14T06:41:56;10.20;99.90
17599;DHT22;8918;52.092;5.232;2024-02-14T06:44:25;10.20;99.90
17599;DHT22;8918;52.092;5.232;2024-02-14T06:46:50;10.20;99.90
17599;DHT22;8918;52.092;5.232;2024-02-14T06:49:16;10.20;99.90
17599;DHT22;8918;52.092;5.232;2024-02-14T06:51:42;10.20;99.90
17599;DHT22;8918;52.092;5.232;2024-02-14T06:54:08;10.20;99.90
17599;DHT22;8918;52.092;5.232;2024-02-14T06:56:35;10.20;99.90
17599;DHT22;8918;52.092;5.232;2024-02-14T06:59:01;10.20;99.90
17599;DHT22;8918;52.092;5.232;2024-02-14T07:01:31;10.20;99.90
17599;DHT22;8918;52.092;5.232;2024-02-14T07:03:57;10.30;99.90
17599;DHT22;8918;52.092;5.232;2024-02-14T07:06:23;10.20;99.90
17599;DHT22;8918;52.092;5.232;2024-02-14T07:08:49;10.20;99.90
17599;DHT22;8918;52.092;5.232;2024-02-14T07:11:16;10.20;99.90
17599;DHT22;8918;52.092;5.232;2024-02-14T07:13:42;10.20;99.90
17599;DHT22;8918;52.092;5.232;2024-02-14T07:16:08;10.20;99.90
17599;DHT22;8918;52.092;5.232;2024-02-14T07:18:34;10.30;99.90
17599;DHT22;8918;52.092;5.232;2024-02-14T07:21:00;10.30;99.90
17599;DHT22;8918;52.092;5.232;2024-02-14T07:23:26;10.30;99.90
17599;DHT22;8918;52.092;5.232;2024-02-14T07:25:53;10.40;99.90
17599;DHT22;8918;52.092;5.232;2024-02-14T07:28:18;10.40;99.90
17599;DHT22;8918;52.092;5.232;2024-02-14T07:30:44;10.40;99.90
17599;DHT22;8918;52.092;5.232;2024-02-14T07:33:09;10.40;99.90
17599;DHT22;8918;52.092;5.232;2024-02-14T07:35:36;10.40;99.90
17599;DHT22;8918;52.092;5.232;2024-02-14T07:38:02;10.40;99.90
17599;DHT22;8918;52.092;5.232;2024-02-14T07:40:28;10.40;99.90
17599;DHT22;8918;52.092;5.232;2024-02-14T07:42:57;10.40;99.90
17599;DHT22;8918;52.092;5.232;2024-02-14T07:45:22;10.40;99.90
17599;DHT22;8918;52.092;5.232;2024-02-14T07:47:51;10.40;99.90
17599;DHT22;8918;52.092;5.232;2024-02-14T07:50:17;10.40;99.90
17599;DHT22;8918;52.092;5.232;2024-02-14T07:52:43;10.40;99.90
17599;DHT22;8918;52.092;5.232;2024-02-14T07:55:09;10.50;99.90
17599;DHT22;8918;52.092;5.232;2024-02-14T07:57:41;10.50;99.90
17599;DHT22;8918;52.092;5.232;2024-02-14T08:00:08;10.50;99.90
17599;DHT22;8918;52.092;5.232;2024-02-14T08:02:35;10.50;99.90
17599;DHT22;8918;52.092;5.232;2024-02-14T08:05:01;10.50;99.90
17599;DHT22;8918;52.092;5.232;2024-02-14T08:07:27;10.50;99.90
17599;DHT22;8918;52.092;5.232;2024-02-14T08:09:53;10.50;99.90
17599;DHT22;8918;52.092;5.232;2024-02-14T08:12:19;10.50;99.90
17599;DHT22;8918;52.092;5.232;2024-02-14T08:14:45;10.50;99.90
17599;DHT22;8918;52.092;5.232;2024-02-14T08:17:10;10.60;99.90
17599;DHT22;8918;52.092;5.232;2024-02-14T08:19:36;10.60;99.90
17599;DHT22;8918;52.092;5.232;2024-02-14T08:22:02;10.60;99.90
17599;DHT22;8918;52.092;5.232;2024-02-14T08:24:28;10.60;99.90
17599;DHT22;8918;52.092;5.232;2024-02-14T08:26:54;10.60;99.90
17599;DHT22;8918;52.092;5.232;2024-02-14T08:29:20;10.60;99.90
17599;DHT22;8918;52.092;5.232;2024-02-14T08:31:46;10.60;99.90
17599;DHT22;8918;52.092;5.232;2024-02-14T08:34:12;10.60;99.90
17599;DHT22;8918;52.092;5.232;2024-02-14T08:36:37;10.70;99.90
17599;DHT22;8918;52.092;5.232;2024-02-14T08:39:07;10.70;99.90
17599;DHT22;8918;52.092;5.232;2024-02-14T08:41:33;10.70;99.90
17599;DHT22;8918;52.092;5.232;2024-02-14T08:43:58;10.70;99.90
17599;DHT22;8918;52.092;5.232;2024-02-14T08:46:24;10.70;99.90
17599;DHT22;8918;52.092;5.232;2024-02-14T08:48:51;10.70;99.90
17599;DHT22;8918;52.092;5.232;2024-02-14T08:51:17;10.70;99.90
17599;DHT22;8918;52.092;5.232;2024-02-14T08:53:45;10.80;99.90
17599;DHT22;8918;52.092;5.232;2024-02-14T08:56:11;10.70;99.90
17599;DHT22;8918;52.092;5.232;2024-02-14T08:58:37;10.80;99.90
17599;DHT22;8918;52.092;5.232;2024-02-14T09:01:03;10.70;99.90
17599;DHT22;8918;52.092;5.232;2024-02-14T09:03:28;10.70;99.90
17599;DHT22;8918;52.092;5.232;2024-02-14T09:05:57;10.80;99.90
17599;DHT22;8918;52.092;5.232;2024-02-14T09:08:22;10.80;99.90
17599;DHT22;8918;52.092;5.232;2024-02-14T09:10:49;10.70;99.90
17599;DHT22;8918;52.092;5.232;2024-02-14T09:13:15;10.70;99.90
17599;DHT22;8918;52.092;5.232;2024-02-14T09:15:41;10.70;99.90
17599;DHT22;8918;52.092;5.232;2024-02-14T09:18:06;10.70;99.90
17599;DHT22;8918;52.092;5.232;2024-02-14T09:20:32;10.80;99.90
17599;DHT22;8918;52.092;5.232;2024-02-14T09:22:57;10.80;99.90
17599;DHT22;8918;52.092;5.232;2024-02-14T09:25:25;10.80;99.90
17599;DHT22;8918;52.092;5.232;2024-02-14T09:27:51;10.80;99.90
17599;DHT22;8918;52.092;5.232;2024-02-14T09:30:18;10.80;99.90
17599;DHT22;8918;52.092;5.232;2024-02-14T09:32:44;10.90;99.90
17599;DHT22;8918;52.092;5.232;2024-02-14T09:35:10;10.80;99.90
17599;DHT22;8918;52.092;5.232;2024-02-14T09:37:36;10.80;99.90
17599;DHT22;8918;52.092;5.232;2024-02-14T09:40:05;10.90;99.90
17599;DHT22;8918;52.092;5.232;2024-02-14T09:42:38;10.90;99.90
17599;DHT22;8918;52.092;5.232;2024-02-14T09:45:08;10.80;99.90
17599;DHT22;8918;52.092;5.232;2024-02-14T09:47:34;10.80;99.90
17599;DHT22;8918;52.092;5.232;2024-02-14T09:50:03;10.90;99.90
17599;DHT22;8918;52.092;5.232;2024-02-14T09:52:32;10.90;99.90
17599;DHT22;8918;52.092;5.232;2024-02-14T09:54:58;10.90;99.90
17599;DHT22;8918;52.092;5.232;2024-02-14T09:57:25;11.00;99.90
17599;DHT22;8918;52.092;5.232;2024-02-14T09:59:53;11.00;99.90
17599;DHT22;8918;52.092;5.232;2024-02-14T10:02:19;11.00;99.90
17599;DHT22;8918;52.092;5.232;2024-02-14T10:04:45;11.00;99.90
17599;DHT22;8918;52.092;5.232;2024-02-14T10:07:11;11.10;99.90
17599;DHT22;8918;52.092;5.232;2024-02-14T10:09:43;11.00;99.90
17599;DHT22;8918;52.092;5.232;2024-02-14T10:12:09;11.00;99.90
17599;DHT22;8918;52.092;5.232;2024-02-14T10:14:38;11.10;99.90
17599;DHT22;8918;52.092;5.232;2024-02-14T10:17:04;11.10;99.90
17599;DHT22;8918;52.092;5.232;2024-02-14T10:19:30;11.10;99.90
17599;DHT22;8918;52.092;5.232;2024-02-14T10:21:59;11.10;99.90
17599;DHT22;8918;52.092;5.232;2024-02-14T10:24:29;11.10;99.90
17599;DHT22;8918;52.092;5.232;2024-02-14T10:26:56;11.20;99.90
17599;DHT22;8918;52.092;5.232;2024-02-14T10:29:23;11.20;99.90
17599;DHT22;8918;52.092;5.232;2024-02-14T10:31:49;11.20;99.90
17599;DHT22;8918;52.092;5.232;2024-02-14T10:34:15;11.20;99.90
17599;DHT22;8918;52.092;5.232;2024-02-14T10:36:43;11.30;99.90
17599;DHT22;8918;52.092;5.232;2024-02-14T10:39:11;11.30;99.90
17599;DHT22;8918;52.092;5.232;2024-02-14T10:41:37;11.40;99.90
17599;DHT22;8918;52.092;5.232;2024-02-14T10:44:03;11.40;99.90
17599;DHT22;8918;52.092;5.232;2024-02-14T10:46:34;11.40;99.90
17599;DHT22;8918;52.092;5.232;2024-02-14T10:49:05;11.40;99.90
17599;DHT22;8918;52.092;5.232;2024-02-14T10:51:31;11.50;99.90
17599;DHT22;8918;52.092;5.232;2024-02-14T10:53:59;11.50;99.90
17599;DHT22;8918;52.092;5.232;2024-02-14T10:56:28;11.60;99.90
17599;DHT22;8918;52.092;5.232;2024-02-14T10:58:56;11.60;99.90
17599;DHT22;8918;52.092;5.232;2024-02-14T11:01:29;11.60;99.90
17599;DHT22;8918;52.092;5.232;2024-02-14T11:03:59;11.60;99.90
17599;DHT22;8918;52.092;5.232;2024-02-14T11:06:25;11.50;99.90
17599;DHT22;8918;52.092;5.232;2024-02-14T11:09:02;11.50;99.90
17599;DHT22;8918;52.092;5.232;2024-02-14T11:11:33;11.60;99.90
17599;DHT22;8918;52.092;5.232;2024-02-14T11:13:59;11.60;99.90
17599;DHT22;8918;52.092;5.232;2024-02-14T11:16:28;11.50;99.90
17599;DHT22;8918;52.092;5.232;2024-02-14T11:19:09;11.50;99.90
17599;DHT22;8918;52.092;5.232;2024-02-14T11:21:41;11.50;99.90
17599;DHT22;8918;52.092;5.232;2024-02-14T11:24:11;11.50;99.90
17599;DHT22;8918;52.092;5.232;2024-02-14T11:26:51;11.50;99.90
17599;DHT22;8918;52.092;5.232;2024-02-14T11:29:17;11.50;99.90
17599;DHT22;8918;52.092;5.232;2024-02-14T11:31:44;11.50;99.90
17599;DHT22;8918;52.092;5.232;2024-02-14T11:34:14;11.50;99.90
17599;DHT22;8918;52.092;5.232;2024-02-14T11:36:43;11.50;99.90
17599;DHT22;8918;52.092;5.232;2024-02-14T11:39:10;11.50;99.90
17599;DHT22;8918;52.092;5.232;2024-02-14T11:41:37;11.60;99.90
17599;DHT22;8918;52.092;5.232;2024-02-14T11:44:04;11.60;99.90
17599;DHT22;8918;52.092;5.232;2024-02-14T11:46:33;11.60;99.90
17599;DHT22;8918;52.092;5.232;2024-02-14T11:49:01;11.60;99.90
17599;DHT22;8918;52.092;5.232;2024-02-14T11:51:28;11.60;99.90
17599;DHT22;8918;52.092;5.232;2024-02-14T11:53:54;11.70;99.90
17599;DHT22;8918;52.092;5.232;2024-02-14T11:56:21;11.60;99.90
17599;DHT22;8918;52.092;5.232;2024-02-14T11:58:48;11.70;99.90
17599;DHT22;8918;52.092;5.232;2024-02-14T12:01:17;11.70;99.90
17599;DHT22;8918;52.092;5.232;2024-02-14T12:03:43;11.70;99.90
17599;DHT22;8918;52.092;5.232;2024-02-14T12:06:09;11.70;99.90
17599;DHT22;8918;52.092;5.232;2024-02-14T12:08:36;11.70;99.90
17599;DHT22;8918;52.092;5.232;2024-02-14T12:11:02;11.70;99.90
17599;DHT22;8918;52.092;5.232;2024-02-14T12:13:28;11.70;99.90
17599;DHT22;8918;52.092;5.232;2024-02-14T12:15:57;11.70;99.90
17599;DHT22;8918;52.092;5.232;2024-02-14T12:18:23;11.70;99.90
17599;DHT22;8918;52.092;5.232;2024-02-14T12:20:49;11.70;99.90
17599;DHT22;8918;52.092;5.232;2024-02-14T12:23:19;11.80;99.90
17599;DHT22;8918;52.092;5.232;2024-02-14T12:25:47;11.70;99.90
17599;DHT22;8918;52.092;5.232;2024-02-14T12:28:17;11.70;99.90
17599;DHT22;8918;52.092;5.232;2024-02-14T12:30:47;11.70;99.90
17599;DHT22;8918;52.092;5.232;2024-02-14T12:33:15;11.70;99.90
17599;DHT22;8918;52.092;5.232;2024-02-14T12:35:46;11.70;99.90
17599;DHT22;8918;52.092;5.232;2024-02-14T12:38:12;11.70;99.90
17599;DHT22;8918;52.092;5.232;2024-02-14T12:40:39;11.70;99.90
17599;DHT22;8918;52.092;5.232;2024-02-14T12:43:10;11.70;99.90
17599;DHT22;8918;52.092;5.232;2024-02-14T12:45:36;11.80;99.90
17599;DHT22;8918;52.092;5.232;2024-02-14T12:48:02;11.80;99.90
17599;DHT22;8918;52.092;5.232;2024-02-14T12:50:28;11.70;99.90
17599;DHT22;8918;52.092;5.232;2024-02-14T12:52:53;11.80;99.90
17599;DHT22;8918;52.092;5.232;2024-02-14T12:55:19;11.80;99.90
17599;DHT22;8918;52.092;5.232;2024-02-14T12:57:45;11.80;99.90
17599;DHT22;8918;52.092;5.232;2024-02-14T13:00:11;11.80;99.90
17599;DHT22;8918;52.092;5.232;2024-02-14T13:02:37;11.80;99.90
17599;DHT22;8918;52.092;5.232;2024-02-14T13:05:04;11.80;99.90
17599;DHT22;8918;52.092;5.232;2024-02-14T13:07:30;11.80;99.90
17599;DHT22;8918;52.092;5.232;2024-02-14T13:09:56;11.80;99.90
17599;DHT22;8918;52.092;5.232;2024-02-14T13:12:22;11.80;99.90
17599;DHT22;8918;52.092;5.232;2024-02-14T13:14:48;11.80;99.90
17599;DHT22;8918;52.092;5.232;2024-02-14T13:17:14;11.80;99.90
17599;DHT22;8918;52.092;5.232;2024-02-14T13:19:40;11.80;99.90
17599;DHT22;8918;52.092;5.232;2024-02-14T13:22:08;11.90;99.90
17599;DHT22;8918;52.092;5.232;2024-02-14T13:24:34;11.90;99.90
17599;DHT22;8918;52.092;5.232;2024-02-14T13:26:59;11.90;99.90
17599;DHT22;8918;52.092;5.232;2024-02-14T13:29:25;11.90;99.90
17599;DHT22;8918;52.092;5.232;2024-02-14T13:31:51;11.90;99.90
17599;DHT22;8918;52.092;5.232;2024-02-14T13:34:17;12.00;99.90
17599;DHT22;8918;52.092;5.232;2024-02-14T13:36:45;12.00;99.90
17599;DHT22;8918;52.092;5.232;2024-02-14T13:39:11;12.00;99.90
17599;DHT22;8918;52.092;5.232;2024-02-14T13:41:40;12.00;99.90
17599;DHT22;8918;52.092;5.232;2024-02-14T13:44:09;12.00;99.90
17599;DHT22;8918;52.092;5.232;2024-02-14T13:46:35;12.00;99.90
17599;DHT22;8918;52.092;5.232;2024-02-14T13:49:01;12.00;99.90
17599;DHT22;8918;52.092;5.232;2024-02-14T13:51:27;12.00;99.90
17599;DHT22;8918;52.092;5.232;2024-02-14T13:53:53;12.00;99.90
17599;DHT22;8918;52.092;5.232;2024-02-14T13:56:18;12.10;99.90
17599;DHT22;8918;52.092;5.232;2024-02-14T13:58:47;12.10;99.90
17599;DHT22;8918;52.092;5.232;2024-02-14T14:01:14;12.00;99.90
17599;DHT22;8918;52.092;5.232;2024-02-14T14:03:40;12.00;99.90
17599;DHT22;8918;52.092;5.232;2024-02-14T14:06:06;12.10;99.90
17599;DHT22;8918;52.092;5.232;2024-02-14T14:08:34;12.10;99.90
17599;DHT22;8918;52.092;5.232;2024-02-14T14:11:03;12.10;99.90
17599;DHT22;8918;52.092;5.232;2024-02-14T14:13:29;12.10;99.90
17599;DHT22;8918;52.092;5.232;2024-02-14T14:16:01;12.10;99.90
17599;DHT22;8918;52.092;5.232;2024-02-14T14:18:26;12.10;99.90
17599;DHT22;8918;52.092;5.232;2024-02-14T14:20:52;12.10;99.90
17599;DHT22;8918;52.092;5.232;2024-02-14T14:23:18;12.10;99.90
17599;DHT22;8918;52.092;5.232;2024-02-14T14:25:43;12.10;99.90
17599;DHT22;8918;52.092;5.232;2024-02-14T14:28:09;12.10;99.90
17599;DHT22;8918;52.092;5.232;2024-02-14T14:30:35;12.10;99.90
17599;DHT22;8918;52.092;5.232;2024-02-14T14:33:02;12.10;99.90
17599;DHT22;8918;52.092;5.232;2024-02-14T14:35:29;12.20;99.90
17599;DHT22;8918;52.092;5.232;2024-02-14T14:38:01;12.20;99.90
17599;DHT22;8918;52.092;5.232;2024-02-14T14:40:28;12.20;99.90
17599;DHT22;8918;52.092;5.232;2024-02-14T14:42:54;12.20;99.90
17599;DHT22;8918;52.092;5.232;2024-02-14T14:45:20;12.20;99.90
17599;DHT22;8918;52.092;5.232;2024-02-14T14:47:45;12.20;99.90
17599;DHT22;8918;52.092;5.232;2024-02-14T14:50:11;12.20;99.90
17599;DHT22;8918;52.092;5.232;2024-02-14T14:52:41;12.30;99.90
17599;DHT22;8918;52.092;5.232;2024-02-14T14:55:09;12.20;99.90
17599;DHT22;8918;52.092;5.232;2024-02-14T14:57:35;12.30;99.90
17599;DHT22;8918;52.092;5.232;2024-02-14T15:00:08;12.30;99.90
17599;DHT22;8918;52.092;5.232;2024-02-14T15:02:37;12.30;99.90
17599;DHT22;8918;52.092;5.232;2024-02-14T15:05:04;12.30;99.90
17599;DHT22;8918;52.092;5.232;2024-02-14T15:07:30;12.30;99.90
17599;DHT22;8918;52.092;5.232;2024-02-14T15:09:55;12.30;99.90
17599;DHT22;8918;52.092;5.232;2024-02-14T15:12:21;12.20;99.90
17599;DHT22;8918;52.092;5.232;2024-02-14T15:14:51;12.20;99.90
17599;DHT22;8918;52.092;5.232;2024-02-14T15:17:16;12.30;99.90
17599;DHT22;8918;52.092;5.232;2024-02-14T15:19:42;12.30;99.90
17599;DHT22;8918;52.092;5.232;2024-02-14T15:22:08;12.30;99.90
17599;DHT22;8918;52.092;5.232;2024-02-14T15:24:33;12.30;99.90
17599;DHT22;8918;52.092;5.232;2024-02-14T15:27:01;12.30;99.90
17599;DHT22;8918;52.092;5.232;2024-02-14T15:29:28;12.30;99.90
17599;DHT22;8918;52.092;5.232;2024-02-14T15:32:12;12.30;99.90
17599;DHT22;8918;52.092;5.232;2024-02-14T15:34:56;12.30;99.90
17599;DHT22;8918;52.092;5.232;2024-02-14T15:37:22;12.30;99.90
17599;DHT22;8918;52.092;5.232;2024-02-14T15:39:48;12.30;99.90
17599;DHT22;8918;52.092;5.232;2024-02-14T15:42:16;12.30;99.90
17599;DHT22;8918;52.092;5.232;2024-02-14T15:44:42;12.30;99.90
17599;DHT22;8918;52.092;5.232;2024-02-14T15:47:08;12.30;99.90